createdAt,value
2024-04-23T00:08:21.642Z,9.40
2024-04-23T00:38:24.177Z,9.53
2024-04-23T01:08:26.891Z,9.42
2024-04-23T01:38:29.462Z,9.19
2024-04-23T02:08:32.129Z,9.24
2024-04-23T02:38:34.649Z,9.22
2024-04-23T03:08:37.404Z,9.22
2024-04-23T03:38:39.931Z,9.27
2024-04-23T04:08:42.687Z,9.43
2024-04-23T04:38:45.188Z,9.32
2024-04-23T05:08:47.949Z,9.29
2024-04-23T05:38:51.361Z,9.25
2024-04-23T06:08:54.159Z,9.35
2024-04-23T06:38:56.688Z,9.69
2024-04-23T07:08:59.605Z,9.77
2024-04-23T07:39:02.169Z,9.59
2024-04-23T08:09:05.096Z,9.80
2024-04-23T08:39:07.639Z,10.36
2024-04-23T09:09:11.814Z,10.59
2024-04-23T09:39:17.733Z,10.75
2024-04-23T10:09:26.557Z,10.83
2024-04-23T10:39:29.023Z,10.88
2024-04-23T11:09:47.790Z,10.91
2024-04-23T11:40:00.219Z,10.85
2024-04-23T12:10:05.763Z,11.16
2024-04-23T12:40:10.155Z,11.53
2024-04-23T13:10:13.866Z,12.06
2024-04-23T13:40:16.528Z,12.08
2024-04-23T14:10:18.971Z,11.66
2024-04-23T14:40:24.969Z,11.82
2024-04-23T15:10:28.411Z,11.68
2024-04-23T15:40:30.919Z,11.99
2024-04-23T16:10:34.345Z,11.96
2024-04-23T16:40:37.472Z,11.50
2024-04-23T17:10:44.783Z,11.76
2024-04-23T17:40:47.753Z,10.97
2024-04-23T18:10:50.769Z,10.93
2024-04-23T18:40:54.001Z,10.34
2024-04-23T19:10:56.939Z,10.10
2024-04-23T19:41:12.873Z,10.65
2024-04-23T20:11:16.436Z,10.38
2024-04-23T20:41:19.153Z,10.47
2024-04-23T21:11:21.976Z,10.63
2024-04-23T21:41:24.512Z,10.50
2024-04-23T22:11:27.997Z,10.20
2024-04-23T22:41:30.534Z,10.29
2024-04-23T23:11:33.364Z,10.90
2024-04-23T23:41:36.540Z,10.37
